Time;durP1;ratioP1;P1;durP2;ratioP2;P2;SDS_P1;SDS_P2;PMS_P1;PMS_P2;Temp;Humidity;BMP_temperature;BMP_pressure;BME280_temperature;BME280_humidity;BME280_pressure;Samples;Min_cycle;Max_cycle;Signal;HPM_P1;HPM_P2
2021/06/14 00:00:19;;;;;;;8.32;1.35;;;;;;;;;;4958121;29;20031;-82
2021/06/14 00:02:46;;;;;;;4.93;1.33;;;;;;;;;;4957847;29;20122;-81
2021/06/14 00:05:17;;;;;;;4.15;1.20;;;;;;;;;;4958057;29;20035;-82
2021/06/14 00:07:43;;;;;;;4.22;1.50;;;;;;;;;;4958114;29;20090;-82
2021/06/14 00:10:11;;;;;;;3.70;1.40;;;;;;;;;;4957708;29;20055;-84
2021/06/14 00:12:37;;;;;;;3.15;1.45;;;;;;;;;;4957783;29;20134;-83
2021/06/14 00:15:04;;;;;;;3.88;1.38;;;;;;;;;;4957633;29;20023;-82
2021/06/14 00:17:31;;;;;;;3.53;1.23;;;;;;;;;;4959084;28;20027;-81
2021/06/14 00:19:57;;;;;;;5.50;1.38;;;;;;;;;;4957609;29;20063;-83
2021/06/14 00:22:23;;;;;;;2.40;1.20;;;;;;;;;;4958753;28;20488;-84
2021/06/14 00:24:50;;;;;;;4.03;1.23;;;;;;;;;;4957711;29;20027;-83
2021/06/14 00:27:16;;;;;;;5.05;1.50;;;;;;;;;;4959231;28;20376;-84
2021/06/14 00:29:42;;;;;;;4.35;1.38;;;;;;;;;;4957146;29;20019;-84
2021/06/14 00:32:08;;;;;;;3.42;1.40;;;;;;;;;;4958747;28;20034;-83
2021/06/14 00:34:35;;;;;;;4.57;1.60;;;;;;;;;;4957290;29;20024;-81
2021/06/14 00:37:01;;;;;;;2.58;1.20;;;;;;;;;;4957298;29;20086;-81
2021/06/14 00:39:27;;;;;;;5.65;1.45;;;;;;;;;;4958214;28;20460;-81
2021/06/14 00:41:53;;;;;;;5.35;1.60;;;;;;;;;;4956661;29;20031;-81
2021/06/14 00:44:19;;;;;;;7.15;1.50;;;;;;;;;;4957036;29;20400;-81
2021/06/14 00:46:45;;;;;;;3.60;1.33;;;;;;;;;;4956995;29;20043;-81
2021/06/14 00:49:11;;;;;;;8.27;1.65;;;;;;;;;;4955754;28;20087;-81
2021/06/14 00:51:38;;;;;;;6.13;1.73;;;;;;;;;;4958309;28;20103;-81
2021/06/14 00:54:05;;;;;;;6.30;1.70;;;;;;;;;;4958087;28;20077;-81
2021/06/14 00:56:31;;;;;;;5.45;1.50;;;;;;;;;;4956768;29;20122;-81
2021/06/14 00:58:58;;;;;;;7.65;1.85;;;;;;;;;;4956730;29;20024;-81
2021/06/14 01:01:24;;;;;;;4.22;1.38;;;;;;;;;;4956515;29;20035;-80
2021/06/14 01:03:50;;;;;;;4.78;1.63;;;;;;;;;;4956325;29;20476;-81
2021/06/14 01:06:17;;;;;;;6.57;1.27;;;;;;;;;;4956337;29;20035;-81
2021/06/14 01:08:47;;;;;;;9.85;2.00;;;;;;;;;;4956542;29;20042;-81
2021/06/14 01:11:16;;;;;;;5.38;1.30;;;;;;;;;;4956440;29;20402;-80
2021/06/14 01:13:55;;;;;;;4.18;1.70;;;;;;;;;;4956357;29;20027;-81
2021/06/14 01:16:44;;;;;;;6.55;1.65;;;;;;;;;;4956221;29;20031;-80
2021/06/14 01:19:29;;;;;;;5.25;1.63;;;;;;;;;;4956485;29;20031;-81
2021/06/14 01:22:14;;;;;;;5.07;1.48;;;;;;;;;;4956206;29;20122;-82
2021/06/14 01:24:59;;;;;;;6.18;1.70;;;;;;;;;;4956274;29;20035;-81
2021/06/14 01:27:37;;;;;;;3.15;1.50;;;;;;;;;;4956406;29;20046;-81
2021/06/14 01:30:15;;;;;;;4.57;1.45;;;;;;;;;;4956442;29;20388;-80
2021/06/14 01:32:42;;;;;;;8.85;1.48;;;;;;;;;;4957979;28;20330;-81
2021/06/14 01:35:10;;;;;;;8.60;1.58;;;;;;;;;;4955663;29;20408;-80
2021/06/14 01:37:41;;;;;;;4.30;1.45;;;;;;;;;;4955783;29;20039;-81
2021/06/14 01:40:07;;;;;;;3.58;1.30;;;;;;;;;;4955781;29;20500;-82
2021/06/14 01:42:34;;;;;;;3.38;1.52;;;;;;;;;;4955919;29;20027;-82
2021/06/14 01:45:01;;;;;;;5.32;1.88;;;;;;;;;;4955722;29;20031;-82
2021/06/14 01:47:27;;;;;;;3.92;1.25;;;;;;;;;;4956948;28;20035;-82
2021/06/14 01:49:54;;;;;;;5.63;1.58;;;;;;;;;;4955804;29;20023;-82
2021/06/14 01:52:21;;;;;;;5.18;1.42;;;;;;;;;;4955466;29;20054;-82
2021/06/14 01:54:47;;;;;;;11.77;1.90;;;;;;;;;;4956939;28;20059;-82
2021/06/14 01:57:14;;;;;;;4.30;1.30;;;;;;;;;;4955807;29;20476;-81
2021/06/14 01:59:41;;;;;;;6.80;1.33;;;;;;;;;;4955314;28;20028;-82
2021/06/14 02:02:08;;;;;;;4.82;1.58;;;;;;;;;;4957445;28;20112;-81
2021/06/14 02:04:36;;;;;;;4.97;1.67;;;;;;;;;;4956657;28;20059;-82
2021/06/14 02:07:03;;;;;;;6.82;1.77;;;;;;;;;;4956946;28;20070;-81
2021/06/14 02:09:30;;;;;;;6.40;1.50;;;;;;;;;;4955336;29;20476;-82
2021/06/14 02:11:58;;;;;;;4.47;1.60;;;;;;;;;;4957236;28;20412;-81
2021/06/14 02:14:26;;;;;;;4.60;1.40;;;;;;;;;;4955691;29;20019;-81
2021/06/14 02:16:53;;;;;;;4.82;1.48;;;;;;;;;;4957119;28;20027;-81
2021/06/14 02:19:19;;;;;;;3.90;1.23;;;;;;;;;;4955681;29;20070;-82
2021/06/14 02:21:46;;;;;;;2.78;1.50;;;;;;;;;;4956873;28;20035;-82
2021/06/14 02:24:13;;;;;;;4.65;1.60;;;;;;;;;;4955346;29;20058;-81
2021/06/14 02:26:41;;;;;;;5.22;1.77;;;;;;;;;;4954942;29;20035;-81
2021/06/14 02:29:08;;;;;;;5.28;1.67;;;;;;;;;;4956772;28;20050;-81
2021/06/14 02:31:35;;;;;;;6.22;1.65;;;;;;;;;;4955276;29;20432;-81
2021/06/14 02:34:01;;;;;;;2.85;1.35;;;;;;;;;;4956603;28;20507;-81
2021/06/14 02:36:27;;;;;;;4.32;1.40;;;;;;;;;;4954840;29;20050;-80
2021/06/14 02:38:55;;;;;;;3.45;1.70;;;;;;;;;;4954947;29;20169;-81
2021/06/14 02:41:22;;;;;;;3.50;1.50;;;;;;;;;;4954935;29;20042;-82
2021/06/14 02:43:50;;;;;;;3.92;1.60;;;;;;;;;;4954745;29;20602;-81
2021/06/14 02:46:17;;;;;;;4.63;1.55;;;;;;;;;;4954427;29;20035;-81
2021/06/14 02:48:46;;;;;;;5.22;1.60;;;;;;;;;;4954509;29;20035;-81
2021/06/14 02:51:13;;;;;;;3.08;1.55;;;;;;;;;;4954545;29;20034;-80
2021/06/14 02:53:40;;;;;;;4.95;1.30;;;;;;;;;;4954344;29;20027;-81
2021/06/14 02:56:08;;;;;;;5.68;1.77;;;;;;;;;;4955680;28;20115;-80
2021/06/14 02:58:35;;;;;;;5.05;1.30;;;;;;;;;;4954499;29;20516;-81
2021/06/14 03:01:03;;;;;;;3.95;1.67;;;;;;;;;;4954387;29;20369;-82
2021/06/14 03:03:29;;;;;;;5.97;1.70;;;;;;;;;;4956109;28;20102;-81
2021/06/14 03:05:57;;;;;;;7.57;1.60;;;;;;;;;;4954171;29;20032;-80
2021/06/14 03:08:24;;;;;;;5.97;1.90;;;;;;;;;;4954252;29;20408;-79
2021/06/14 03:10:50;;;;;;;4.40;1.55;;;;;;;;;;4953740;28;20031;-81
2021/06/14 03:13:16;;;;;;;2.90;1.17;;;;;;;;;;4954056;29;20031;-80
2021/06/14 03:15:43;;;;;;;3.70;1.48;;;;;;;;;;4955428;28;20107;-81
2021/06/14 03:18:09;;;;;;;5.32;1.55;;;;;;;;;;4954091;29;20034;-81
2021/06/14 03:20:37;;;;;;;6.65;1.42;;;;;;;;;;4954100;29;20074;-81
2021/06/14 03:23:04;;;;;;;6.10;1.65;;;;;;;;;;4954135;29;20110;-81
2021/06/14 03:25:30;;;;;;;4.85;1.10;;;;;;;;;;4955349;28;20035;-81
2021/06/14 03:27:57;;;;;;;1.60;0.93;;;;;;;;;;4954066;29;20184;-81
2021/06/14 03:30:24;;;;;;;4.07;1.63;;;;;;;;;;4954249;29;20055;-81
2021/06/14 03:32:50;;;;;;;4.03;1.23;;;;;;;;;;4954602;29;20031;-81
2021/06/14 03:35:20;;;;;;;4.50;1.40;;;;;;;;;;4954119;29;20121;-82
2021/06/14 03:37:47;;;;;;;4.88;1.25;;;;;;;;;;4954544;29;20484;-81
2021/06/14 03:40:15;;;;;;;2.22;0.93;;;;;;;;;;4956121;28;20106;-81
2021/06/14 03:42:41;;;;;;;5.88;1.40;;;;;;;;;;4954001;29;20039;-84
2021/06/14 03:45:08;;;;;;;3.47;1.20;;;;;;;;;;4953752;29;20031;-80
2021/06/14 03:47:34;;;;;;;4.53;1.45;;;;;;;;;;4953871;29;20031;-80
2021/06/14 03:50:00;;;;;;;10.70;1.23;;;;;;;;;;4953730;29;20046;-81
2021/06/14 03:52:27;;;;;;;4.25;1.27;;;;;;;;;;4953896;29;20042;-81
2021/06/14 03:54:53;;;;;;;5.57;1.23;;;;;;;;;;4953835;29;20473;-80
2021/06/14 03:57:20;;;;;;;3.65;1.20;;;;;;;;;;4953751;29;20141;-79
2021/06/14 03:59:46;;;;;;;5.85;1.27;;;;;;;;;;4953749;29;20027;-80
2021/06/14 04:02:12;;;;;;;4.65;1.60;;;;;;;;;;4954410;29;20030;-80
2021/06/14 04:04:44;;;;;;;4.15;1.25;;;;;;;;;;4955779;28;20030;-80
2021/06/14 04:07:10;;;;;;;3.45;1.17;;;;;;;;;;4955920;28;20420;-80
2021/06/14 04:09:36;;;;;;;6.45;1.00;;;;;;;;;;4954046;29;20023;-79
2021/06/14 04:12:03;;;;;;;4.68;1.30;;;;;;;;;;4953860;29;20028;-80
2021/06/14 04:14:29;;;;;;;4.00;1.00;;;;;;;;;;4953696;29;20038;-80
2021/06/14 04:16:56;;;;;;;5.03;1.30;;;;;;;;;;4956649;28;20023;-80
2021/06/14 04:19:22;;;;;;;4.28;1.05;;;;;;;;;;4955132;28;20023;-80
2021/06/14 04:21:48;;;;;;;3.20;1.30;;;;;;;;;;4953710;29;20028;-80
2021/06/14 04:24:14;;;;;;;5.97;1.10;;;;;;;;;;4956794;28;20059;-80
2021/06/14 04:26:41;;;;;;;4.18;1.00;;;;;;;;;;4958722;28;20372;-81
2021/06/14 04:29:07;;;;;;;2.80;1.17;;;;;;;;;;4956935;29;20049;-81
2021/06/14 04:31:33;;;;;;;4.72;1.23;;;;;;;;;;4957055;29;20031;-81
2021/06/14 04:33:59;;;;;;;3.90;1.20;;;;;;;;;;4957248;29;20031;-82
2021/06/14 04:36:25;;;;;;;2.47;1.13;;;;;;;;;;4956689;29;20555;-83
2021/06/14 04:38:51;;;;;;;2.95;0.90;;;;;;;;;;4956716;29;20074;-83
2021/06/14 04:41:17;;;;;;;4.43;1.27;;;;;;;;;;4958523;28;20389;-84
2021/06/14 04:43:44;;;;;;;2.53;1.00;;;;;;;;;;4956781;29;20118;-81
2021/06/14 04:46:10;;;;;;;2.80;0.98;;;;;;;;;;4958189;28;20090;-81
2021/06/14 04:48:36;;;;;;;2.08;0.70;;;;;;;;;;4956506;29;20073;-82
2021/06/14 04:51:03;;;;;;;8.80;1.25;;;;;;;;;;4956359;29;20029;-81
2021/06/14 04:53:29;;;;;;;3.70;1.02;;;;;;;;;;4957715;28;20049;-81
2021/06/14 04:55:55;;;;;;;4.78;1.23;;;;;;;;;;4957612;28;20032;-81
2021/06/14 04:58:21;;;;;;;3.20;1.05;;;;;;;;;;4956314;29;20118;-81
2021/06/14 05:00:48;;;;;;;4.07;1.20;;;;;;;;;;4956280;29;20031;-81
2021/06/14 05:03:14;;;;;;;4.68;1.30;;;;;;;;;;4958008;28;20031;-81
2021/06/14 05:05:41;;;;;;;6.57;1.10;;;;;;;;;;4957424;28;20035;-81
2021/06/14 05:08:07;;;;;;;4.53;1.20;;;;;;;;;;4958018;28;20019;-82
2021/06/14 05:10:33;;;;;;;4.65;1.27;;;;;;;;;;4956169;29;20038;-82
2021/06/14 05:12:59;;;;;;;3.90;1.13;;;;;;;;;;4954378;29;20074;-82
2021/06/14 05:15:26;;;;;;;4.20;1.00;;;;;;;;;;4951310;29;20362;-82
2021/06/14 05:17:52;;;;;;;4.05;1.25;;;;;;;;;;4955611;29;20028;-82
2021/06/14 05:20:18;;;;;;;4.38;0.93;;;;;;;;;;4955802;29;20033;-82
2021/06/14 05:22:45;;;;;;;4.90;1.23;;;;;;;;;;4955923;29;20027;-82
2021/06/14 05:25:12;;;;;;;3.20;1.13;;;;;;;;;;4955548;29;20035;-81
2021/06/14 05:27:38;;;;;;;4.05;1.45;;;;;;;;;;4955576;29;20447;-81
2021/06/14 05:30:04;;;;;;;2.53;1.30;;;;;;;;;;4955565;29;20031;-82
2021/06/14 05:32:31;;;;;;;4.13;1.30;;;;;;;;;;4956977;28;20027;-81
2021/06/14 05:34:59;;;;;;;3.60;1.23;;;;;;;;;;4955822;28;20050;-81
2021/06/14 05:37:25;;;;;;;2.67;1.20;;;;;;;;;;4955498;29;20027;-80
2021/06/14 05:39:51;;;;;;;4.82;1.30;;;;;;;;;;4955401;29;20042;-80
2021/06/14 05:42:17;;;;;;;5.82;1.27;;;;;;;;;;4955359;29;20034;-81
2021/06/14 05:44:43;;;;;;;2.70;1.25;;;;;;;;;;4955275;29;20023;-81
2021/06/14 05:47:09;;;;;;;3.83;1.40;;;;;;;;;;4955071;29;20069;-81
2021/06/14 05:49:36;;;;;;;3.95;1.27;;;;;;;;;;4939320;29;20464;-80
2021/06/14 05:52:02;;;;;;;4.10;1.38;;;;;;;;;;4955212;29;20033;-82
2021/06/14 05:54:28;;;;;;;3.53;1.25;;;;;;;;;;4955107;29;20027;-81
2021/06/14 05:56:54;;;;;;;5.03;1.65;;;;;;;;;;4955076;29;20023;-81
2021/06/14 05:59:20;;;;;;;3.65;1.27;;;;;;;;;;4956294;29;20499;-82
2021/06/14 06:01:46;;;;;;;4.75;1.40;;;;;;;;;;4955095;29;20027;-82
2021/06/14 06:04:14;;;;;;;8.90;1.48;;;;;;;;;;4954956;29;20452;-82
2021/06/14 06:06:40;;;;;;;3.78;1.17;;;;;;;;;;4954859;29;20395;-83
2021/06/14 06:09:06;;;;;;;2.88;1.15;;;;;;;;;;4954819;29;20027;-82
2021/06/14 06:11:32;;;;;;;4.63;1.13;;;;;;;;;;4954771;29;20543;-81
2021/06/14 06:13:59;;;;;;;3.28;1.20;;;;;;;;;;4954939;29;20019;-82
2021/06/14 06:16:25;;;;;;;2.63;1.33;;;;;;;;;;4954726;29;20027;-80
2021/06/14 06:18:51;;;;;;;4.35;1.70;;;;;;;;;;4954683;29;20060;-80
2021/06/14 06:21:17;;;;;;;4.95;1.35;;;;;;;;;;4954666;29;20031;-82
2021/06/14 06:23:43;;;;;;;3.72;1.33;;;;;;;;;;4954589;29;20062;-82
2021/06/14 06:26:09;;;;;;;2.70;1.10;;;;;;;;;;4956040;28;20046;-81
2021/06/14 06:28:36;;;;;;;5.07;1.83;;;;;;;;;;4954578;29;20027;-81
2021/06/14 06:31:02;;;;;;;3.88;1.33;;;;;;;;;;4954862;29;20035;-81
2021/06/14 06:33:28;;;;;;;4.10;1.05;;;;;;;;;;4955805;28;20533;-80
2021/06/14 06:35:54;;;;;;;4.45;1.17;;;;;;;;;;4954161;29;20066;-80
2021/06/14 06:38:21;;;;;;;3.17;1.13;;;;;;;;;;4954432;29;20511;-80
2021/06/14 06:40:48;;;;;;;3.30;0.90;;;;;;;;;;4938550;29;20038;-81
2021/06/14 06:43:14;;;;;;;3.40;1.60;;;;;;;;;;4954589;29;20502;-81
2021/06/14 06:45:41;;;;;;;4.05;1.17;;;;;;;;;;4953654;28;20031;-84
2021/06/14 06:48:07;;;;;;;5.43;1.52;;;;;;;;;;4953982;29;20073;-81
2021/06/14 06:50:33;;;;;;;4.10;1.55;;;;;;;;;;4954231;29;20023;-83
2021/06/14 06:52:59;;;;;;;5.80;1.20;;;;;;;;;;4954126;29;20551;-83
2021/06/14 06:55:25;;;;;;;7.93;1.25;;;;;;;;;;4955813;28;20023;-80
2021/06/14 06:57:51;;;;;;;3.10;0.90;;;;;;;;;;4955438;28;20102;-80
2021/06/14 07:00:19;;;;;;;6.28;1.17;;;;;;;;;;4954952;28;20481;-81
2021/06/14 07:02:45;;;;;;;4.63;1.27;;;;;;;;;;4945631;29;20469;-81
2021/06/14 07:05:11;;;;;;;4.13;1.08;;;;;;;;;;4951347;29;20031;-79
2021/06/14 07:07:37;;;;;;;3.97;1.17;;;;;;;;;;4953598;29;20463;-81
2021/06/14 07:10:06;;;;;;;5.43;1.35;;;;;;;;;;4953653;29;20131;-80
2021/06/14 07:12:36;;;;;;;4.20;1.17;;;;;;;;;;4954106;29;20053;-81
2021/06/14 07:15:03;;;;;;;3.03;1.00;;;;;;;;;;4954842;28;20488;-81
2021/06/14 07:17:29;;;;;;;2.28;0.70;;;;;;;;;;4954866;28;20031;-80
2021/06/14 07:19:56;;;;;;;3.03;1.05;;;;;;;;;;4955284;28;20384;-80
2021/06/14 07:22:22;;;;;;;3.13;1.10;;;;;;;;;;4955775;28;20027;-80
2021/06/14 07:24:49;;;;;;;2.85;1.40;;;;;;;;;;4955741;28;20032;-80
2021/06/14 07:27:16;;;;;;;2.15;0.88;;;;;;;;;;4953937;29;20039;-80
2021/06/14 07:29:42;;;;;;;4.00;1.10;;;;;;;;;;4953947;29;20035;-80
2021/06/14 07:32:09;;;;;;;2.90;1.00;;;;;;;;;;4953989;29;20063;-80
2021/06/14 07:34:35;;;;;;;2.88;0.82;;;;;;;;;;4954984;28;20114;-81
2021/06/14 07:37:01;;;;;;;4.00;1.38;;;;;;;;;;4955172;28;20035;-80
2021/06/14 07:39:28;;;;;;;3.30;1.20;;;;;;;;;;4955165;28;20028;-80
2021/06/14 07:41:54;;;;;;;3.60;1.02;;;;;;;;;;4953787;29;20039;-80
2021/06/14 07:44:21;;;;;;;3.45;1.00;;;;;;;;;;4953876;29;20110;-80
2021/06/14 07:46:47;;;;;;;3.65;1.15;;;;;;;;;;4953777;29;20134;-80
2021/06/14 07:49:14;;;;;;;3.15;0.90;;;;;;;;;;4955077;28;20026;-80
2021/06/14 07:51:40;;;;;;;2.05;0.80;;;;;;;;;;4955081;28;20030;-80
2021/06/14 07:54:06;;;;;;;3.90;1.27;;;;;;;;;;4955540;28;20090;-80
2021/06/14 07:56:35;;;;;;;6.40;1.10;;;;;;;;;;4955565;28;20038;-80
2021/06/14 07:59:01;;;;;;;2.38;1.13;;;;;;;;;;4956859;28;20507;-80
2021/06/14 08:01:28;;;;;;;6.22;1.13;;;;;;;;;;4959171;28;20423;-79
2021/06/14 08:03:54;;;;;;;2.85;1.20;;;;;;;;;;4957384;29;20507;-80
2021/06/14 08:06:20;;;;;;;6.78;1.33;;;;;;;;;;4958455;28;20480;-80
2021/06/14 08:08:47;;;;;;;3.17;1.10;;;;;;;;;;4958549;28;20099;-80
2021/06/14 08:11:13;;;;;;;5.63;1.40;;;;;;;;;;4958494;28;20400;-80
2021/06/14 08:13:39;;;;;;;9.25;1.45;;;;;;;;;;4958400;28;20059;-80
2021/06/14 08:16:08;;;;;;;4.40;1.15;;;;;;;;;;4958390;28;20122;-80
2021/06/14 08:18:47;;;;;;;5.00;1.02;;;;;;;;;;4957074;29;20158;-80
2021/06/14 08:21:26;;;;;;;2.35;1.00;;;;;;;;;;4958910;28;20032;-80
2021/06/14 08:26:37;;;;;;;3.45;1.33;;;;;;;;;;4958154;29;20078;-80
2021/06/14 08:29:03;;;;;;;2.90;1.10;;;;;;;;;;4958694;28;20043;-80
2021/06/14 08:31:32;;;;;;;5.47;0.90;;;;;;;;;;4958105;28;20396;-80
2021/06/14 08:33:58;;;;;;;4.28;1.10;;;;;;;;;;4956770;29;20023;-80
2021/06/14 08:36:25;;;;;;;2.75;0.90;;;;;;;;;;4957795;28;20048;-80
2021/06/14 08:38:51;;;;;;;4.55;1.27;;;;;;;;;;4956626;29;20063;-80
2021/06/14 08:41:19;;;;;;;3.70;1.08;;;;;;;;;;4957929;28;20035;-80
2021/06/14 08:43:48;;;;;;;4.30;0.90;;;;;;;;;;4956615;29;20035;-80
2021/06/14 08:46:14;;;;;;;3.65;0.90;;;;;;;;;;4956506;29;20031;-80
2021/06/14 08:48:41;;;;;;;12.45;1.58;;;;;;;;;;4957789;28;20035;-79
2021/06/14 08:51:11;;;;;;;2.80;0.88;;;;;;;;;;4958283;28;20031;-79
2021/06/14 08:53:38;;;;;;;4.47;1.23;;;;;;;;;;4957749;28;20058;-80
2021/06/14 08:56:05;;;;;;;3.13;1.13;;;;;;;;;;4958140;28;20023;-80
2021/06/14 08:58:32;;;;;;;2.38;0.80;;;;;;;;;;4957685;28;20094;-80
2021/06/14 09:00:59;;;;;;;3.35;0.90;;;;;;;;;;4956541;29;20388;-80
2021/06/14 09:03:28;;;;;;;2.05;1.00;;;;;;;;;;4956253;29;20031;-80
2021/06/14 09:05:55;;;;;;;4.32;1.17;;;;;;;;;;4957921;28;20067;-79
2021/06/14 09:08:27;;;;;;;10.75;1.50;;;;;;;;;;4957793;28;20106;-80
2021/06/14 09:10:53;;;;;;;2.83;1.00;;;;;;;;;;4955599;29;20439;-79
2021/06/14 09:13:21;;;;;;;2.15;1.00;;;;;;;;;;4957325;28;20515;-79
2021/06/14 09:15:51;;;;;;;3.42;0.90;;;;;;;;;;4956047;29;20043;-80
2021/06/14 09:18:22;;;;;;;3.30;0.80;;;;;;;;;;4956030;29;20086;-80
2021/06/14 09:20:55;;;;;;;2.67;0.70;;;;;;;;;;4957167;28;20421;-79
2021/06/14 09:23:22;;;;;;;2.03;0.80;;;;;;;;;;4955919;29;20114;-80
2021/06/14 09:25:49;;;;;;;2.25;0.80;;;;;;;;;;4955750;29;20027;-80
2021/06/14 09:28:16;;;;;;;2.70;1.02;;;;;;;;;;4957106;28;20433;-80
2021/06/14 09:30:42;;;;;;;2.75;0.95;;;;;;;;;;4957022;28;20047;-80
2021/06/14 09:33:10;;;;;;;4.07;0.75;;;;;;;;;;4955778;29;20034;-80
2021/06/14 09:35:38;;;;;;;2.95;0.70;;;;;;;;;;4955432;29;20091;-80
2021/06/14 09:38:11;;;;;;;4.15;1.23;;;;;;;;;;4955605;29;20034;-80
2021/06/14 09:40:39;;;;;;;4.00;1.13;;;;;;;;;;4955582;29;20035;-80
2021/06/14 09:43:07;;;;;;;4.75;1.42;;;;;;;;;;4955529;29;20070;-80
2021/06/14 09:45:34;;;;;;;2.53;0.90;;;;;;;;;;4955498;29;20063;-80
2021/06/14 09:48:01;;;;;;;2.67;0.70;;;;;;;;;;4955457;29;20035;-80
2021/06/14 09:50:29;;;;;;;3.03;0.85;;;;;;;;;;4956704;28;20034;-80
2021/06/14 09:53:08;;;;;;;2.30;0.90;;;;;;;;;;4955390;29;20027;-80
2021/06/14 09:55:35;;;;;;;3.15;0.90;;;;;;;;;;4955367;29;20020;-80
2021/06/14 09:58:11;;;;;;;3.97;1.08;;;;;;;;;;4955367;28;20034;-77
2021/06/14 10:00:45;;;;;;;1.92;0.77;;;;;;;;;;4956379;29;20480;-78
2021/06/14 10:03:11;;;;;;;4.93;0.75;;;;;;;;;;4955035;29;20027;-81
2021/06/14 10:05:43;;;;;;;3.90;1.00;;;;;;;;;;4956144;29;20477;-81
2021/06/14 10:08:09;;;;;;;4.57;1.00;;;;;;;;;;4956277;29;20039;-78
2021/06/14 10:10:38;;;;;;;3.42;0.90;;;;;;;;;;4954884;29;20023;-78
2021/06/14 10:13:05;;;;;;;1.70;0.75;;;;;;;;;;4956116;29;20028;-82
2021/06/14 10:15:32;;;;;;;1.63;0.65;;;;;;;;;;4954761;29;20126;-79
2021/06/14 10:17:58;;;;;;;1.85;0.70;;;;;;;;;;4954870;29;20492;-78
2021/06/14 10:20:26;;;;;;;2.10;0.82;;;;;;;;;;4956442;28;20031;-80
2021/06/14 10:22:55;;;;;;;1.90;0.77;;;;;;;;;;4955833;29;20027;-79
2021/06/14 10:25:22;;;;;;;4.50;0.90;;;;;;;;;;4954620;29;20038;-79
2021/06/14 10:27:48;;;;;;;3.63;1.20;;;;;;;;;;4956505;29;20042;-79
2021/06/14 10:30:16;;;;;;;3.97;1.20;;;;;;;;;;4955879;29;20512;-80
2021/06/14 10:32:43;;;;;;;3.80;1.00;;;;;;;;;;4954629;29;20030;-80
2021/06/14 10:35:10;;;;;;;3.65;0.93;;;;;;;;;;4954318;29;20047;-80
2021/06/14 10:37:47;;;;;;;2.78;1.10;;;;;;;;;;4954575;29;20031;-79
2021/06/14 10:40:18;;;;;;;1.98;0.88;;;;;;;;;;4955738;29;20079;-79
2021/06/14 10:42:45;;;;;;;2.40;0.88;;;;;;;;;;4954572;29;20033;-80
2021/06/14 10:45:13;;;;;;;4.45;1.30;;;;;;;;;;4956132;28;20027;-80
2021/06/14 10:47:45;;;;;;;4.43;1.55;;;;;;;;;;4954424;29;20440;-79
2021/06/14 10:50:12;;;;;;;7.77;1.40;;;;;;;;;;4954412;29;20396;-79
2021/06/14 10:52:40;;;;;;;8.77;1.50;;;;;;;;;;4954016;29;20035;-80
2021/06/14 10:55:10;;;;;;;4.18;0.98;;;;;;;;;;4955453;29;20015;-79
2021/06/14 10:57:43;;;;;;;11.82;3.28;;;;;;;;;;4954298;29;20035;-80
2021/06/14 11:00:09;;;;;;;;;;;;;;;;;;4954622;29;20023;-79
2021/06/14 11:02:36;;;;;;;4.68;2.03;;;;;;;;;;4956084;29;19906;-79
2021/06/14 11:05:04;;;;;;;27.48;2.13;;;;;;;;;;4954122;29;20031;-79
2021/06/14 11:07:30;;;;;;;2.85;1.20;;;;;;;;;;4953785;29;20035;-79
2021/06/14 11:09:56;;;;;;;7.25;1.30;;;;;;;;;;4954039;29;20048;-80
2021/06/14 11:12:26;;;;;;;5.63;1.55;;;;;;;;;;4955335;29;20075;-80
2021/06/14 11:14:53;;;;;;;5.75;1.50;;;;;;;;;;4954106;29;20106;-81
2021/06/14 11:17:21;;;;;;;4.15;1.35;;;;;;;;;;4954086;29;20032;-80
2021/06/14 11:19:48;;;;;;;5.80;1.65;;;;;;;;;;4954069;29;20057;-80
2021/06/14 11:22:15;;;;;;;6.57;1.27;;;;;;;;;;4955285;29;20118;-80
2021/06/14 11:24:42;;;;;;;4.20;1.80;;;;;;;;;;4953777;29;20034;-81
2021/06/14 11:27:09;;;;;;;2.05;1.10;;;;;;;;;;4953796;29;20118;-79
2021/06/14 11:29:46;;;;;;;2.58;1.20;;;;;;;;;;4954853;28;20388;-79
2021/06/14 11:32:18;;;;;;;5.68;1.30;;;;;;;;;;4954121;28;20028;-80
2021/06/14 11:34:45;;;;;;;9.60;1.23;;;;;;;;;;4957500;29;20445;-80
2021/06/14 11:37:12;;;;;;;6.53;1.58;;;;;;;;;;4958023;29;20090;-79
2021/06/14 11:39:38;;;;;;;9.95;1.58;;;;;;;;;;4955932;29;20389;-79
2021/06/14 11:42:12;;;;;;;15.48;1.35;;;;;;;;;;4948024;28;20026;-79
2021/06/14 11:44:49;;;;;;;3.75;1.20;;;;;;;;;;4947763;28;20063;-80
2021/06/14 11:47:25;;;;;;;4.10;1.55;;;;;;;;;;4949339;29;20069;-79
2021/06/14 11:49:53;;;;;;;12.98;1.73;;;;;;;;;;4958978;28;20026;-79
2021/06/14 11:52:24;;;;;;;7.75;1.50;;;;;;;;;;4957211;29;20027;-79
2021/06/14 11:54:53;;;;;;;4.60;1.30;;;;;;;;;;4957505;29;20058;-80
2021/06/14 11:57:25;;;;;;;4.53;1.33;;;;;;;;;;4958933;28;20444;-79
2021/06/14 11:59:51;;;;;;;3.20;1.30;;;;;;;;;;4957501;29;20481;-79
2021/06/14 12:02:19;;;;;;;3.00;1.30;;;;;;;;;;4956336;28;20035;-80
2021/06/14 12:04:46;;;;;;;5.53;1.38;;;;;;;;;;4956880;29;20035;-80
2021/06/14 12:07:12;;;;;;;3.85;1.50;;;;;;;;;;4956900;29;20039;-80
2021/06/14 12:09:41;;;;;;;3.80;1.33;;;;;;;;;;4957837;29;20035;-77
2021/06/14 12:12:08;;;;;;;2.85;1.30;;;;;;;;;;4953270;29;20031;-78
2021/06/14 12:14:34;;;;;;;5.05;1.38;;;;;;;;;;4956630;29;20135;-81
2021/06/14 12:17:05;;;;;;;4.85;1.38;;;;;;;;;;4956942;29;20023;-80
2021/06/14 12:19:32;;;;;;;6.45;1.90;;;;;;;;;;4958026;28;20032;-79
2021/06/14 12:22:04;;;;;;;4.88;1.98;;;;;;;;;;4958534;28;20055;-81
2021/06/14 12:24:31;;;;;;;3.65;1.75;;;;;;;;;;4956421;29;20195;-79
2021/06/14 12:26:59;;;;;;;3.90;1.60;;;;;;;;;;4956337;29;20053;-80
2021/06/14 12:29:25;;;;;;;8.60;2.00;;;;;;;;;;4956370;29;20027;-80
2021/06/14 12:32:01;;;;;;;7.05;1.90;;;;;;;;;;4956758;29;20035;-80
2021/06/14 12:34:30;;;;;;;4.63;1.58;;;;;;;;;;4957293;29;20516;-79
2021/06/14 12:37:05;;;;;;;5.15;1.85;;;;;;;;;;4958902;29;20043;-79
2021/06/14 12:39:31;;;;;;;3.88;1.65;;;;;;;;;;4956684;29;20082;-80
2021/06/14 12:41:58;;;;;;;3.33;1.38;;;;;;;;;;4957632;29;20035;-83
2021/06/14 12:44:24;;;;;;;2.70;1.30;;;;;;;;;;4956672;28;20054;-79
2021/06/14 12:46:51;;;;;;;4.68;1.70;;;;;;;;;;4957626;29;20046;-80
2021/06/14 12:49:32;;;;;;;6.05;2.13;;;;;;;;;;4956323;29;20082;-80
2021/06/14 12:51:58;;;;;;;5.05;1.52;;;;;;;;;;4950394;29;20114;-80
2021/06/14 12:54:24;;;;;;;5.07;1.35;;;;;;;;;;4949616;29;20036;-80
2021/06/14 12:56:51;;;;;;;4.95;1.95;;;;;;;;;;4937219;29;20031;-80
2021/06/14 12:59:18;;;;;;;6.68;1.83;;;;;;;;;;4939491;29;20039;-80
2021/06/14 13:01:44;;;;;;;4.28;1.77;;;;;;;;;;4937100;29;20035;-80
2021/06/14 13:04:10;;;;;;;6.10;2.03;;;;;;;;;;4938289;29;20031;-81
2021/06/14 13:06:38;;;;;;;3.47;1.70;;;;;;;;;;4941440;29;20042;-80
2021/06/14 13:09:05;;;;;;;5.45;2.00;;;;;;;;;;4957558;28;20372;-81
2021/06/14 13:11:40;;;;;;;6.28;1.50;;;;;;;;;;4956035;29;20141;-80
2021/06/14 13:14:06;;;;;;;6.88;2.10;;;;;;;;;;4956102;29;20051;-80
2021/06/14 13:16:32;;;;;;;8.18;1.92;;;;;;;;;;4955986;29;20033;-80
2021/06/14 13:19:00;;;;;;;8.30;1.95;;;;;;;;;;4955922;29;20059;-80
2021/06/14 13:21:30;;;;;;;3.85;1.88;;;;;;;;;;4956097;29;20027;-80
2021/06/14 13:23:58;;;;;;;3.78;1.80;;;;;;;;;;4957303;29;20038;-78
2021/06/14 13:26:25;;;;;;;3.50;1.65;;;;;;;;;;4957482;29;20039;-79
2021/06/14 13:28:52;;;;;;;3.30;1.70;;;;;;;;;;4956911;28;20135;-79
2021/06/14 13:31:22;;;;;;;5.68;1.92;;;;;;;;;;4954628;29;20068;-78
2021/06/14 13:34:11;;;;;;;7.40;1.90;;;;;;;;;;4956889;29;20105;-78
2021/06/14 13:36:41;;;;;;;5.00;2.17;;;;;;;;;;4955387;29;20509;-80
2021/06/14 13:39:11;;;;;;;5.97;2.10;;;;;;;;;;4955026;29;20042;-78
2021/06/14 13:41:38;;;;;;;3.47;1.58;;;;;;;;;;4955501;29;20031;-79
2021/06/14 13:44:04;;;;;;;5.07;1.75;;;;;;;;;;4957016;29;20031;-78
2021/06/14 13:46:43;;;;;;;6.00;1.67;;;;;;;;;;4957025;29;20035;-79
2021/06/14 13:49:09;;;;;;;4.22;1.88;;;;;;;;;;4960557;28;20027;-79
2021/06/14 13:51:36;;;;;;;4.45;1.52;;;;;;;;;;4956650;29;20034;-78
2021/06/14 13:54:03;;;;;;;3.80;1.90;;;;;;;;;;4956493;29;20055;-79
2021/06/14 13:56:32;;;;;;;4.68;2.10;;;;;;;;;;4954739;28;20045;-79
2021/06/14 13:59:01;;;;;;;4.43;1.90;;;;;;;;;;4956449;29;20116;-79
2021/06/14 14:01:28;;;;;;;7.53;2.05;;;;;;;;;;4955062;29;20035;-79
2021/06/14 14:04:04;;;;;;;5.60;1.77;;;;;;;;;;4955065;29;20113;-80
2021/06/14 14:06:31;;;;;;;4.65;2.08;;;;;;;;;;4956713;29;20480;-92
2021/06/14 14:08:58;;;;;;;3.72;1.60;;;;;;;;;;4954991;29;20028;-79
2021/06/14 14:11:24;;;;;;;7.63;2.67;;;;;;;;;;4954708;29;20547;-78
2021/06/14 14:13:56;;;;;;;4.53;1.67;;;;;;;;;;4956100;28;20023;-79
2021/06/14 14:16:22;;;;;;;4.65;1.92;;;;;;;;;;4954794;29;20436;-79
2021/06/14 14:18:49;;;;;;;6.50;1.77;;;;;;;;;;4954777;29;20031;-79
2021/06/14 14:21:15;;;;;;;7.18;1.85;;;;;;;;;;4954645;29;20023;-78
2021/06/14 14:23:41;;;;;;;5.32;1.70;;;;;;;;;;4956356;28;20503;-79
2021/06/14 14:26:07;;;;;;;6.80;2.05;;;;;;;;;;4954536;29;20046;-78
2021/06/14 14:28:33;;;;;;;4.80;2.10;;;;;;;;;;4956067;28;20390;-79
2021/06/14 14:31:00;;;;;;;6.07;2.33;;;;;;;;;;4954861;29;20027;-80
2021/06/14 14:33:26;;;;;;;6.93;2.20;;;;;;;;;;4954057;29;20031;-79
2021/06/14 14:36:03;;;;;;;3.38;1.55;;;;;;;;;;4953960;29;20039;-80
2021/06/14 14:38:31;;;;;;;5.63;2.10;;;;;;;;;;4954116;29;20038;-80
2021/06/14 14:40:57;;;;;;;4.47;1.90;;;;;;;;;;4954553;29;20031;-80
2021/06/14 14:43:24;;;;;;;6.32;2.13;;;;;;;;;;4955775;28;20028;-80
2021/06/14 14:45:50;;;;;;;11.43;2.15;;;;;;;;;;4955627;28;20035;-80
2021/06/14 14:48:16;;;;;;;5.70;1.83;;;;;;;;;;4955756;28;20027;-77